Time;durP1;ratioP1;P1;durP2;ratioP2;P2;SDS_P1;SDS_P2;PMS_P1;PMS_P2;Temp;Humidity;BMP_temperature;BMP_pressure;BME280_temperature;BME280_humidity;BME280_pressure;Samples;Min_cycle;Max_cycle;Signal;HPM_P1;HPM_P2
2023/12/24 00:02:10;;;;;;;5.65;2.05;;;;;;;9.43;100.00;100731.34;5094817;28;20464;-90
2023/12/24 00:04:45;;;;;;;8.40;2.17;;;;;;;9.40;100.00;100704.66;5097991;28;20045;-90
2023/12/24 00:07:16;;;;;;;9.35;2.13;;;;;;;9.38;100.00;100703.22;5096955;28;20031;-90
2023/12/24 00:10:02;;;;;;;7.20;2.10;;;;;;;9.40;100.00;100693.00;5080045;28;20024;-90
2023/12/24 00:12:37;;;;;;;6.30;1.85;;;;;;;9.50;100.00;100733.19;5097394;28;20023;-90
2023/12/24 00:15:18;;;;;;;6.93;2.78;;;;;;;9.50;100.00;100722.34;5081637;28;20028;-89
2023/12/24 00:17:57;;;;;;;;;;;;;;;;;;;;;
2023/12/24 00:20:25;;;;;;;5.22;2.17;;;;;;;9.42;100.00;100713.41;5115442;28;20028;-90
2023/12/24 00:23:11;;;;;;;6.65;2.10;;;;;;;9.54;100.00;100737.16;5096650;28;20076;-90
2023/12/24 00:25:59;;;;;;;7.63;2.20;;;;;;;9.45;100.00;100731.94;5081218;28;20055;-90
2023/12/24 00:28:52;;;;;;;6.18;2.03;;;;;;;9.46;100.00;100725.50;5080280;28;20353;-89
2023/12/24 00:31:23;;;;;;;8.23;2.03;;;;;;;9.52;100.00;100725.69;5096888;28;20112;-90
2023/12/24 00:33:51;;;;;;;4.40;1.85;;;;;;;9.54;100.00;100710.88;5079904;28;20035;-90
2023/12/24 00:36:20;;;;;;;4.50;2.17;;;;;;;9.44;100.00;100692.34;5096471;28;20059;-90
2023/12/24 00:38:49;;;;;;;5.03;1.70;;;;;;;9.46;100.00;100709.25;5096385;28;20035;-90
2023/12/24 00:41:30;;;;;;;;;;;;;;;;;;;;;
2023/12/24 00:44:03;;;;;;;8.32;1.65;;;;;;;9.51;100.00;100651.72;5083806;28;20036;-90
2023/12/24 00:46:36;;;;;;;3.40;1.40;;;;;;;9.51;100.00;100669.84;5080470;28;20027;-90
2023/12/24 00:49:33;;;;;;;5.78;1.13;;;;;;;9.47;100.00;100683.81;5096996;28;20043;-90
2023/12/24 00:54:56;;;;;;;5.53;1.42;;;;;;;9.37;100.00;100641.97;5114910;28;20028;-91
2023/12/24 00:57:27;;;;;;;5.68;1.60;;;;;;;9.33;100.00;100635.31;5096246;28;20035;-90
2023/12/24 00:59:57;;;;;;;5.80;1.15;;;;;;;9.26;100.00;100609.09;5096085;28;20081;-91
2023/12/24 01:02:34;;;;;;;6.93;1.30;;;;;;;9.31;100.00;100619.28;5094187;28;20112;-90
2023/12/24 01:05:02;;;;;;;5.88;1.10;;;;;;;9.30;100.00;100580.56;5060198;28;20051;-90
2023/12/24 01:07:37;;;;;;;5.95;1.00;;;;;;;9.37;100.00;100577.00;5059285;28;20062;-90
2023/12/24 01:10:15;;;;;;;;;;;;;;;;;;;;;
2023/12/24 01:12:50;;;;;;;6.60;1.20;;;;;;;9.36;100.00;100549.09;5078060;28;20036;-90
2023/12/24 01:15:27;;;;;;;9.05;1.13;;;;;;;9.51;100.00;100578.59;5076666;28;20026;-90
2023/12/24 01:17:55;;;;;;;4.93;0.93;;;;;;;9.47;100.00;100561.13;5059208;28;20066;-90
2023/12/24 01:20:23;;;;;;;4.35;1.05;;;;;;;9.46;100.00;100562.16;5075994;28;20040;-90
2023/12/24 01:22:49;;;;;;;4.55;0.95;;;;;;;9.55;100.00;100576.28;5075736;28;20046;-90
2023/12/24 01:25:17;;;;;;;4.20;0.87;;;;;;;9.55;100.00;100560.88;5075397;28;20472;-90
2023/12/24 01:27:52;;;;;;;6.72;1.38;;;;;;;9.61;100.00;100557.31;5076516;28;20288;-90
2023/12/24 01:30:29;;;;;;;6.38;1.33;;;;;;;9.60;100.00;100549.41;5075951;28;20380;-90
2023/12/24 01:33:05;;;;;;;4.63;1.08;;;;;;;9.63;100.00;100570.63;5076350;28;20031;-90
2023/12/24 01:35:34;;;;;;;7.40;1.13;;;;;;;9.60;100.00;100568.34;5086827;28;20032;-90
2023/12/24 01:37:59;;;;;;;5.28;1.20;;;;;;;9.61;100.00;100565.44;5092245;28;20024;-90
2023/12/24 01:40:43;;;;;;;4.40;0.80;;;;;;;9.63;100.00;100566.03;5092101;28;20027;-90
2023/12/24 01:43:14;;;;;;;5.45;0.90;;;;;;;9.59;100.00;100572.94;5093266;28;20070;-90
2023/12/24 01:45:58;;;;;;;3.80;0.63;;;;;;;9.65;100.00;100577.50;5092924;28;20107;-90
2023/12/24 01:48:28;;;;;;;5.75;1.10;;;;;;;9.76;100.00;100604.97;5092570;28;20036;-91
2023/12/24 01:51:08;;;;;;;7.38;1.23;;;;;;;9.52;100.00;100566.69;5059830;28;20479;-90
2023/12/24 01:53:41;;;;;;;5.82;0.98;;;;;;;9.52;100.00;100595.69;5077329;28;20129;-90
2023/12/24 01:56:18;;;;;;;5.28;0.85;;;;;;;9.46;100.00;100581.09;5092301;28;20032;-89
2023/12/24 01:58:53;;;;;;;7.20;0.90;;;;;;;9.50;100.00;100595.88;5092263;28;20031;-90
2023/12/24 02:01:26;;;;;;;7.35;1.15;;;;;;;9.43;100.00;100614.03;5092500;28;20026;-90
2023/12/24 02:03:59;;;;;;;5.47;1.10;;;;;;;9.24;100.00;100575.16;5103332;28;20526;-90
2023/12/24 02:06:30;;;;;;;5.88;1.52;;;;;;;9.08;100.00;100608.91;5104913;28;20509;-92
2023/12/24 02:09:09;;;;;;;;;;;;;;;;;;;;;
2023/12/24 02:12:00;;;;;;;6.63;1.60;;;;;;;8.63;100.00;100589.84;5118663;28;20019;-91
2023/12/24 02:14:46;;;;;;;9.07;1.95;;;;;;;8.45;100.00;100587.78;5117403;28;20030;-91
2023/12/24 02:17:37;;;;;;;6.25;1.85;;;;;;;8.37;100.00;100596.88;5115931;28;20027;-92
2023/12/24 02:20:15;;;;;;;7.28;2.10;;;;;;;8.39;100.00;100590.22;5116501;28;20125;-91
2023/12/24 02:22:54;;;;;;;7.97;2.05;;;;;;;8.34;100.00;100568.41;5100854;28;20032;-91
2023/12/24 02:25:20;;;;;;;6.33;1.77;;;;;;;8.33;100.00;100579.41;5116494;28;20027;-90
2023/12/24 02:28:04;;;;;;;10.15;1.83;;;;;;;8.35;100.00;100577.31;5116106;28;20070;-89
2023/12/24 02:30:34;;;;;;;7.38;1.92;;;;;;;8.31;100.00;100576.06;5116240;28;20038;-89
2023/12/24 02:33:03;;;;;;;8.93;2.10;;;;;;;8.25;100.00;100575.88;5133904;27;20026;-89
2023/12/24 02:35:33;;;;;;;10.10;2.20;;;;;;;8.24;100.00;100552.56;5117335;28;20031;-88
2023/12/24 02:37:59;;;;;;;8.13;2.37;;;;;;;8.18;100.00;100545.31;5117172;28;20068;-88
2023/12/24 02:40:24;;;;;;;10.55;2.45;;;;;;;8.22;100.00;100554.66;5116030;28;20123;-88
2023/12/24 02:42:50;;;;;;;9.97;2.90;;;;;;;8.19;100.00;100546.97;5117331;28;20107;-88
2023/12/24 02:45:16;;;;;;;7.90;2.30;;;;;;;8.16;100.00;100531.16;5116717;28;20031;-88
2023/12/24 02:47:41;;;;;;;10.20;3.10;;;;;;;8.26;100.00;100541.56;5117151;28;20027;-88
2023/12/24 02:50:07;;;;;;;8.03;3.10;;;;;;;8.26;100.00;100539.69;5115931;28;20084;-87
2023/12/24 02:52:32;;;;;;;9.73;2.42;;;;;;;8.28;100.00;100531.34;5133353;27;20495;-87
2023/12/24 02:54:58;;;;;;;12.77;3.20;;;;;;;8.28;100.00;100531.34;5115657;28;20023;-87
2023/12/24 02:57:23;;;;;;;10.50;2.80;;;;;;;8.20;100.00;100523.47;5098907;28;20073;-87
2023/12/24 02:59:48;;;;;;;11.50;3.10;;;;;;;8.25;100.00;100520.97;5116607;28;20062;-86
2023/12/24 03:02:14;;;;;;;11.43;3.13;;;;;;;8.27;100.00;100537.81;5098714;28;20036;-87
2023/12/24 03:04:39;;;;;;;7.00;2.70;;;;;;;8.23;100.00;100534.69;5081872;28;20055;-87
2023/12/24 03:07:05;;;;;;;6.67;2.87;;;;;;;8.23;100.00;100525.75;5098208;28;20035;-87
2023/12/24 03:09:30;;;;;;;9.00;2.67;;;;;;;8.23;100.00;100523.06;5098455;28;20130;-86
2023/12/24 03:11:56;;;;;;;9.32;2.20;;;;;;;8.23;100.00;100529.28;5115223;28;20021;-86
2023/12/24 03:14:21;;;;;;;7.97;2.50;;;;;;;8.24;100.00;100525.56;5115016;28;20054;-87
2023/12/24 03:16:47;;;;;;;7.97;2.10;;;;;;;8.24;100.00;100511.22;5098273;28;20024;-87
2023/12/24 03:19:12;;;;;;;9.77;2.27;;;;;;;8.23;100.00;100504.97;5116313;28;20036;-87
2023/12/24 03:21:41;;;;;;;5.87;2.13;;;;;;;8.24;100.00;100495.81;5116219;28;20103;-87
2023/12/24 03:24:07;;;;;;;8.07;2.17;;;;;;;8.31;100.00;100500.38;5116394;28;20273;-86
2023/12/24 03:26:33;;;;;;;4.80;1.40;;;;;;;8.30;100.00;100487.91;5114790;28;20054;-86
2023/12/24 03:29:00;;;;;;;3.13;1.47;;;;;;;8.32;100.00;100480.44;5114933;28;20464;-87
2023/12/24 03:31:26;;;;;;;4.57;1.10;;;;;;;8.31;100.00;100476.91;5114832;28;20056;-86
2023/12/24 03:33:52;;;;;;;3.33;1.13;;;;;;;8.33;100.00;100482.94;5116170;28;20020;-86
2023/12/24 03:36:18;;;;;;;2.28;1.00;;;;;;;8.38;100.00;100480.41;5114442;28;20027;-87
2023/12/24 03:38:43;;;;;;;2.25;1.00;;;;;;;8.40;100.00;100472.94;5115401;28;20034;-87
2023/12/24 03:41:08;;;;;;;6.17;0.80;;;;;;;8.36;100.00;100478.97;5116338;28;20028;-87
2023/12/24 03:43:39;;;;;;;3.73;0.70;;;;;;;8.40;100.00;100470.22;5080258;28;20028;-87
2023/12/24 03:46:05;;;;;;;2.05;0.55;;;;;;;8.41;100.00;100474.59;5114938;28;20475;-87
2023/12/24 03:48:32;;;;;;;3.30;0.70;;;;;;;8.43;100.00;100467.09;5114821;28;20036;-87
2023/12/24 03:50:57;;;;;;;2.67;0.88;;;;;;;8.48;100.00;100473.78;5131691;27;20027;-87
2023/12/24 03:53:23;;;;;;;0.90;0.50;;;;;;;8.44;100.00;100457.16;5114180;28;20403;-87
2023/12/24 03:55:48;;;;;;;0.98;0.60;;;;;;;8.47;100.00;100454.00;5115773;28;20104;-87
2023/12/24 03:58:14;;;;;;;1.53;0.50;;;;;;;8.48;100.00;100458.41;5115222;28;20049;-87
2023/12/24 04:00:39;;;;;;;2.10;0.40;;;;;;;8.48;100.00;100462.97;5109272;28;20039;-86
2023/12/24 04:03:05;;;;;;;1.13;0.50;;;;;;;8.50;100.00;100483.34;5115081;28;20028;-87
2023/12/24 04:05:33;;;;;;;1.55;0.50;;;;;;;8.48;100.00;100471.09;5115845;28;20047;-86
2023/12/24 04:07:58;;;;;;;0.90;0.50;;;;;;;8.50;100.00;100455.47;5115480;28;20093;-86
2023/12/24 04:10:24;;;;;;;1.20;0.60;;;;;;;8.52;100.00;100465.03;5113916;28;20031;-87
2023/12/24 04:12:50;;;;;;;1.03;0.50;;;;;;;8.51;100.00;100451.75;5115473;28;20032;-87
2023/12/24 04:15:15;;;;;;;0.90;0.40;;;;;;;8.57;100.00;100465.22;5113813;28;20171;-87
2023/12/24 04:17:41;;;;;;;0.90;0.50;;;;;;;8.55;100.00;100467.31;5096758;28;20036;-87
2023/12/24 04:20:06;;;;;;;1.83;0.40;;;;;;;8.58;100.00;100455.25;5113623;28;20069;-87
2023/12/24 04:22:32;;;;;;;1.77;0.67;;;;;;;8.53;100.00;100445.09;5096604;28;20027;-87
2023/12/24 04:24:58;;;;;;;3.65;0.60;;;;;;;8.58;100.00;100450.69;5115458;28;20284;-86
2023/12/24 04:27:24;;;;;;;1.05;0.52;;;;;;;8.57;100.00;100431.97;5113698;28;20024;-86
2023/12/24 04:29:50;;;;;;;3.60;0.60;;;;;;;8.61;100.00;100460.25;5130981;27;20063;-86
2023/12/24 04:32:17;;;;;;;1.40;0.50;;;;;;;8.62;100.00;100442.13;5113194;28;20074;-86
2023/12/24 04:34:42;;;;;;;0.93;0.60;;;;;;;8.56;100.00;100443.81;5096612;28;20031;-87
2023/12/24 04:37:08;;;;;;;0.90;0.50;;;;;;;8.58;100.00;100457.97;5114509;28;20027;-86
2023/12/24 04:39:33;;;;;;;1.30;0.70;;;;;;;8.58;100.00;100429.03;5113625;28;20471;-87
2023/12/24 04:41:59;;;;;;;0.80;0.45;;;;;;;8.59;100.00;100436.13;5114928;28;20084;-86
2023/12/24 04:44:24;;;;;;;1.37;0.57;;;;;;;8.58;100.00;100445.25;5115105;28;20028;-88
2023/12/24 04:46:50;;;;;;;2.20;0.63;;;;;;;8.59;100.00;100433.41;5097464;28;20528;-87
2023/12/24 04:49:15;;;;;;;0.77;0.50;;;;;;;8.61;100.00;100438.63;5114440;28;20460;-87
2023/12/24 04:51:41;;;;;;;0.83;0.50;;;;;;;8.64;100.00;100435.47;5114668;28;20371;-87
2023/12/24 04:54:07;;;;;;;1.20;0.60;;;;;;;8.63;100.00;100441.09;5113473;28;20387;-87
2023/12/24 04:56:32;;;;;;;0.90;0.50;;;;;;;8.66;100.00;100443.38;5096281;28;20494;-87
2023/12/24 04:59:01;;;;;;;1.60;0.67;;;;;;;8.66;100.00;100437.97;5113228;28;20464;-87
2023/12/24 05:01:26;;;;;;;1.30;0.50;;;;;;;8.63;100.00;100439.22;5113431;28;20359;-87
2023/12/24 05:03:52;;;;;;;0.80;0.50;;;;;;;8.65;100.00;100431.75;5112783;28;20069;-86
2023/12/24 05:06:17;;;;;;;0.80;0.50;;;;;;;8.67;100.00;100435.06;5114746;28;20039;-86
2023/12/24 05:08:43;;;;;;;1.20;0.60;;;;;;;8.70;100.00;100433.81;5096321;28;20040;-87
2023/12/24 05:11:09;;;;;;;1.00;0.50;;;;;;;8.68;100.00;100427.75;5114702;28;20055;-87
2023/12/24 05:13:35;;;;;;;2.77;0.63;;;;;;;8.67;100.00;100424.22;5112987;28;20026;-87
2023/12/24 05:16:02;;;;;;;0.90;0.50;;;;;;;8.66;100.00;100433.38;5130787;27;20051;-87
2023/12/24 05:18:28;;;;;;;1.15;0.50;;;;;;;8.69;100.00;100426.72;5112796;28;20035;-87
2023/12/24 05:20:53;;;;;;;1.97;0.70;;;;;;;8.70;100.00;100439.22;5114317;28;20035;-87
2023/12/24 05:23:21;;;;;;;1.15;0.52;;;;;;;8.74;100.00;100446.69;5096199;28;20368;-87
2023/12/24 05:25:46;;;;;;;2.08;0.60;;;;;;;8.75;100.00;100442.09;5113472;28;20393;-87
2023/12/24 05:28:12;;;;;;;1.13;0.60;;;;;;;8.74;100.00;100440.41;5112959;28;20036;-84
2023/12/24 05:30:38;;;;;;;0.70;0.40;;;;;;;8.74;100.00;100424.19;5079530;28;20118;-84
2023/12/24 05:33:03;;;;;;;1.20;0.40;;;;;;;8.76;100.00;100439.16;5096132;28;20493;-86
2023/12/24 05:35:28;;;;;;;0.93;0.60;;;;;;;8.74;100.00;100438.56;5112598;28;20035;-85
2023/12/24 05:37:54;;;;;;;1.57;0.60;;;;;;;8.76;100.00;100436.47;5112733;28;20028;-85
2023/12/24 05:40:19;;;;;;;1.00;0.40;;;;;;;8.80;100.00;100417.09;5112793;28;20112;-85
2023/12/24 05:42:45;;;;;;;1.27;0.60;;;;;;;8.77;100.00;100418.38;5114060;28;20383;-85
2023/12/24 05:45:11;;;;;;;1.63;0.57;;;;;;;8.81;100.00;100421.47;5115851;28;20083;-85
2023/12/24 05:47:37;;;;;;;1.08;0.57;;;;;;;8.77;100.00;100412.97;5118112;28;20039;-85
2023/12/24 05:50:08;;;;;;;1.13;0.43;;;;;;;8.83;100.00;100430.19;5117185;28;20028;-87
2023/12/24 05:52:33;;;;;;;1.40;0.50;;;;;;;8.83;100.00;100420.22;5117100;28;20036;-87
2023/12/24 05:54:59;;;;;;;1.67;0.60;;;;;;;8.81;100.00;100421.47;5118129;28;20028;-87
2023/12/24 05:57:25;;;;;;;1.20;0.60;;;;;;;8.80;100.00;100425.22;5118255;28;20026;-87
2023/12/24 05:59:50;;;;;;;1.57;0.43;;;;;;;8.84;100.00;100429.97;5116684;28;20114;-86
2023/12/24 06:02:18;;;;;;;1.00;0.50;;;;;;;8.84;100.00;100423.75;5116974;28;20029;-86
2023/12/24 06:04:43;;;;;;;1.75;0.60;;;;;;;8.83;100.00;100404.00;5116121;28;20057;-86
2023/12/24 06:07:08;;;;;;;2.13;0.50;;;;;;;8.84;100.00;100413.75;5082640;28;20031;-88
2023/12/24 06:09:36;;;;;;;1.10;0.50;;;;;;;8.88;100.00;100420.41;5099494;28;20478;-87
2023/12/24 06:12:02;;;;;;;1.70;0.60;;;;;;;8.86;100.00;100422.50;5117632;28;20038;-87
2023/12/24 06:14:28;;;;;;;1.63;0.75;;;;;;;8.91;100.00;100422.66;5117524;28;20023;-86
2023/12/24 06:16:53;;;;;;;2.73;0.60;;;;;;;8.92;100.00;100410.81;5117872;28;20059;-86
2023/12/24 06:19:19;;;;;;;1.55;0.70;;;;;;;8.92;100.00;100415.41;5117397;28;20118;-86
2023/12/24 06:21:44;;;;;;;1.20;0.60;;;;;;;8.91;100.00;100405.63;5117644;28;20467;-86
2023/12/24 06:24:10;;;;;;;1.30;0.57;;;;;;;8.95;100.00;100417.69;5117186;28;20046;-86
2023/12/24 06:26:35;;;;;;;3.35;0.70;;;;;;;8.94;100.00;100407.88;5116332;28;20043;-84
2023/12/24 06:29:01;;;;;;;1.43;0.50;;;;;;;8.96;100.00;100405.78;5117231;28;20107;-84
2023/12/24 06:31:26;;;;;;;1.53;0.50;;;;;;;8.97;100.00;100410.16;5117183;28;20064;-85
2023/12/24 06:33:52;;;;;;;1.87;0.50;;;;;;;8.99;100.00;100399.13;5117162;28;20379;-83
2023/12/24 06:36:17;;;;;;;1.20;0.50;;;;;;;8.99;100.00;100397.28;5115759;28;20028;-84
2023/12/24 06:38:43;;;;;;;2.28;0.50;;;;;;;8.98;100.00;100387.47;5115523;28;20114;-82
2023/12/24 06:41:09;;;;;;;2.05;0.60;;;;;;;9.00;100.00;100385.38;5133342;27;20114;-84
2023/12/24 06:43:36;;;;;;;2.17;0.67;;;;;;;9.02;100.00;100388.72;5115431;28;20471;-84
2023/12/24 06:46:01;;;;;;;1.95;0.50;;;;;;;9.04;100.00;100397.44;5115606;28;20335;-83
2023/12/24 06:48:26;;;;;;;1.95;0.50;;;;;;;9.04;100.00;100383.91;5082053;28;20036;-84
2023/12/24 06:50:52;;;;;;;1.07;0.53;;;;;;;9.02;100.00;100380.59;5132698;27;20060;-83
2023/12/24 06:53:17;;;;;;;2.70;0.50;;;;;;;9.07;100.00;100380.75;5115984;28;20409;-83
2023/12/24 06:55:43;;;;;;;3.20;0.50;;;;;;;9.08;100.00;100390.53;5115502;28;20034;-83
2023/12/24 06:58:08;;;;;;;1.67;0.43;;;;;;;9.10;100.00;100382.22;5116976;28;20420;-85
2023/12/24 07:00:37;;;;;;;1.70;0.70;;;;;;;9.06;100.00;100395.31;5115400;28;20027;-84
2023/12/24 07:03:02;;;;;;;3.05;0.73;;;;;;;9.06;100.00;100372.84;5098125;28;20032;-85
2023/12/24 07:05:34;;;;;;;2.27;0.80;;;;;;;9.05;100.00;100380.16;5115500;28;20439;-84
2023/12/24 07:07:59;;;;;;;4.50;0.90;;;;;;;9.08;100.00;100373.47;5113471;28;20131;-86
2023/12/24 07:10:25;;;;;;;4.27;1.00;;;;;;;9.09;100.00;100381.38;5115265;28;20114;-86
2023/12/24 07:12:51;;;;;;;3.42;0.98;;;;;;;9.10;100.00;100371.38;5114775;28;20024;-83
2023/12/24 07:15:17;;;;;;;3.23;0.93;;;;;;;9.10;100.00;100379.50;5116547;28;20016;-83
2023/12/24 07:17:45;;;;;;;2.17;0.88;;;;;;;9.13;100.00;100379.88;5115262;28;20049;-87
2023/12/24 07:20:11;;;;;;;3.20;1.10;;;;;;;9.14;100.00;100386.16;5098697;28;20142;-84
2023/12/24 07:22:40;;;;;;;2.88;1.00;;;;;;;9.13;100.00;100381.78;5115731;28;20032;-88
2023/12/24 07:25:08;;;;;;;4.43;1.02;;;;;;;9.12;100.00;100375.53;5117010;28;20414;-85
2023/12/24 07:27:33;;;;;;;1.88;0.95;;;;;;;9.15;100.00;100374.25;5114831;28;20119;-85
2023/12/24 07:29:59;;;;;;;3.77;1.00;;;;;;;9.16;100.00;100384.03;5114923;28;20074;-83
2023/12/24 07:32:24;;;;;;;4.87;1.43;;;;;;;9.20;100.00;100392.56;5115985;28;20028;-85
2023/12/24 07:34:50;;;;;;;3.95;1.08;;;;;;;9.17;100.00;100390.28;5115139;28;20036;-86
2023/12/24 07:37:19;;;;;;;4.27;1.03;;;;;;;9.21;100.00;100391.50;5115300;28;20071;-87
2023/12/24 07:39:45;;;;;;;4.25;1.00;;;;;;;9.15;100.00;100379.66;5115106;28;20031;-86
2023/12/24 07:42:10;;;;;;;5.10;1.10;;;;;;;9.20;100.00;100387.16;5115532;28;20027;-86
2023/12/24 07:44:36;;;;;;;3.80;1.33;;;;;;;9.19;100.00;100391.72;5115958;28;20028;-85
2023/12/24 07:47:02;;;;;;;2.20;0.90;;;;;;;9.22;100.00;100393.19;5114486;28;20114;-84
2023/12/24 07:49:27;;;;;;;2.58;1.10;;;;;;;9.18;100.00;100414.41;5097429;28;20115;-83
2023/12/24 07:51:52;;;;;;;3.40;1.03;;;;;;;9.22;100.00;100395.88;5114514;28;20035;-84
2023/12/24 07:54:18;;;;;;;2.47;0.70;;;;;;;9.17;100.00;100401.94;5115722;28;20040;-84
2023/12/24 07:56:43;;;;;;;3.83;1.20;;;;;;;9.23;100.00;100401.06;5114078;28;20532;-83
2023/12/24 07:59:09;;;;;;;4.27;0.90;;;;;;;9.19;100.00;100383.59;5114109;28;20039;-85
2023/12/24 08:01:38;;;;;;;1.57;0.80;;;;;;;9.23;100.00;100384.84;5115638;28;20036;-86
2023/12/24 08:04:04;;;;;;;2.80;0.80;;;;;;;9.19;100.00;100378.19;5123940;27;20052;-86
2023/12/24 08:06:30;;;;;;;2.55;0.60;;;;;;;9.23;100.00;100392.13;5076782;28;20177;-86
2023/12/24 08:08:58;;;;;;;2.47;0.90;;;;;;;9.20;100.00;100379.84;5093403;28;20119;-86
2023/12/24 08:11:24;;;;;;;1.50;0.80;;;;;;;9.28;100.00;100376.88;5076903;28;20126;-85
2023/12/24 08:13:49;;;;;;;2.42;0.70;;;;;;;9.22;100.00;100393.19;5077295;28;20130;-86
2023/12/24 08:16:15;;;;;;;2.93;1.00;;;;;;;9.24;100.00;100391.06;5076670;28;20437;-85
2023/12/24 08:18:40;;;;;;;1.90;0.63;;;;;;;9.24;100.00;100383.78;5094550;28;20517;-86
2023/12/24 08:21:10;;;;;;;3.43;0.80;;;;;;;9.21;100.00;100405.88;5076467;28;20529;-86
2023/12/24 08:23:37;;;;;;;3.35;1.33;;;;;;;9.27;100.00;100396.03;5093681;28;20491;-86
2023/12/24 08:26:03;;;;;;;1.85;0.80;;;;;;;9.26;100.00;100376.28;5094795;28;20028;-86
2023/12/24 08:28:29;;;;;;;1.50;0.70;;;;;;;9.26;100.00;100384.41;5094773;28;20039;-86
2023/12/24 08:30:54;;;;;;;2.45;1.00;;;;;;;9.30;100.00;100393.75;5076606;28;20028;-86
2023/12/24 08:33:20;;;;;;;2.17;0.70;;;;;;;9.27;100.00;100386.06;5077086;28;20044;-86
2023/12/24 08:35:45;;;;;;;4.10;0.90;;;;;;;9.30;100.00;100385.63;5076342;28;20061;-85
2023/12/24 08:38:11;;;;;;;2.50;0.70;;;;;;;9.38;100.00;100381.81;5059618;28;20032;-87
2023/12/24 08:40:36;;;;;;;2.53;1.10;;;;;;;9.34;100.00;100391.41;5094101;28;20269;-86
2023/12/24 08:43:02;;;;;;;3.27;1.30;;;;;;;9.35;100.00;100387.69;5075917;28;20072;-86
2023/12/24 08:45:28;;;;;;;3.07;1.20;;;;;;;9.39;100.00;100371.81;5076319;28;20036;-86
2023/12/24 08:47:55;;;;;;;2.58;1.02;;;;;;;9.37;100.00;100380.16;5094445;28;20777;-86
2023/12/24 08:50:21;;;;;;;2.40;0.93;;;;;;;9.38;100.00;100381.81;5094371;28;20034;-86
2023/12/24 08:52:47;;;;;;;2.92;1.10;;;;;;;9.38;100.00;100384.53;5076343;28;20032;-85
2023/12/24 08:55:12;;;;;;;2.17;1.00;;;;;;;9.41;100.00;100377.84;5094315;28;20439;-83
2023/12/24 08:57:38;;;;;;;3.20;1.17;;;;;;;9.42;100.00;100369.50;5094563;28;20032;-83
2023/12/24 09:00:05;;;;;;;2.55;1.10;;;;;;;9.47;100.00;100385.09;5076038;28;20042;-84
2023/12/24 09:02:31;;;;;;;3.50;1.13;;;;;;;9.47;100.00;100382.38;5075822;28;20119;-84
2023/12/24 09:04:58;;;;;;;3.08;1.30;;;;;;;9.47;100.00;100376.97;5109179;28;20043;-84
2023/12/24 09:07:24;;;;;;;3.38;1.15;;;;;;;9.50;100.00;100392.78;5095937;28;20032;-84
2023/12/24 09:09:51;;;;;;;2.95;1.10;;;;;;;9.50;100.00;100392.78;5080044;28;20391;-84
2023/12/24 09:12:18;;;;;;;5.28;1.60;;;;;;;9.55;100.00;100424.63;5113894;28;20395;-84
2023/12/24 09:14:43;;;;;;;2.80;1.13;;;;;;;9.55;100.00;100402.94;5113642;28;20066;-84
2023/12/24 09:17:08;;;;;;;4.18;1.40;;;;;;;9.58;100.00;100407.91;5096134;28;20458;-84
2023/12/24 09:19:37;;;;;;;3.38;1.33;;;;;;;9.59;100.00;100409.59;5113794;28;20031;-85
2023/12/24 09:22:02;;;;;;;4.07;1.30;;;;;;;9.61;100.00;100411.03;5113909;28;20050;-84
2023/12/24 09:24:27;;;;;;;4.82;1.40;;;;;;;9.64;100.00;100396.19;5095809;28;20032;-84
2023/12/24 09:26:53;;;;;;;2.43;1.13;;;;;;;9.63;100.00;100395.38;5096250;28;20032;-84
2023/12/24 09:29:22;;;;;;;4.10;1.20;;;;;;;9.68;100.00;100393.91;5114384;28;20110;-85
2023/12/24 09:31:48;;;;;;;3.25;1.10;;;;;;;9.67;100.00;100401.22;5113108;28;20046;-82
2023/12/24 09:34:13;;;;;;;2.70;1.10;;;;;;;9.71;100.00;100390.75;5095793;28;20042;-83
2023/12/24 09:36:39;;;;;;;5.43;1.00;;;;;;;9.68;100.00;100383.88;5112772;28;20035;-85
2023/12/24 09:39:05;;;;;;;4.00;1.23;;;;;;;9.72;100.00;100381.56;5095931;28;20034;-83
2023/12/24 09:41:30;;;;;;;5.23;1.30;;;;;;;9.72;100.00;100384.28;5114005;28;20028;-84
2023/12/24 09:43:56;;;;;;;3.17;1.10;;;;;;;9.73;100.00;100377.78;5112814;28;20035;-85
2023/12/24 09:46:21;;;;;;;3.17;1.20;;;;;;;9.70;100.00;100387.22;5114337;28;20376;-84
2023/12/24 09:48:46;;;;;;;3.83;1.33;;;;;;;9.72;100.00;100385.09;5113862;28;20107;-85
2023/12/24 09:51:12;;;;;;;4.43;1.10;;;;;;;9.75;100.00;100381.13;5114020;28;20114;-84
2023/12/24 09:53:41;;;;;;;6.90;1.70;;;;;;;9.73;100.00;100378.66;5079210;28;20472;-85
2023/12/24 09:56:07;;;;;;;6.22;2.05;;;;;;;9.75;100.00;100392.78;5095710;28;20055;-86
2023/12/24 09:58:32;;;;;;;12.18;2.63;;;;;;;9.72;100.00;100385.09;5095592;28;20515;-84
2023/12/24 10:00:58;;;;;;;17.33;4.27;;;;;;;9.77;100.00;100377.16;5113827;28;20027;-86
2023/12/24 10:03:23;;;;;;;15.80;3.93;;;;;;;9.79;100.00;100385.88;5113658;28;20028;-86
2023/12/24 10:05:59;;;;;;;21.73;5.70;;;;;;;9.81;100.00;100391.91;5114177;28;20028;-85
2023/12/24 10:08:27;;;;;;;21.25;5.85;;;;;;;9.84;100.00;100391.44;5095770;28;20118;-86
2023/12/24 10:10:53;;;;;;;26.38;6.63;;;;;;;9.86;100.00;100383.09;5095813;28;20459;-84
2023/12/24 10:13:22;;;;;;;34.63;7.93;;;;;;;9.91;100.00;100386.00;5095617;28;20067;-84
2023/12/24 10:16:04;;;;;;;35.20;7.35;;;;;;;9.94;100.00;100403.69;5113648;28;20034;-84
2023/12/24 10:18:31;;;;;;;32.60;8.45;;;;;;;9.94;100.00;100395.56;5095761;28;20031;-84
2023/12/24 10:21:09;;;;;;;38.45;9.60;;;;;;;9.95;100.00;100379.06;5112274;28;20036;-84
2023/12/24 10:23:35;;;;;;;27.65;7.63;;;;;;;9.97;100.00;100390.50;5095251;28;20023;-84
2023/12/24 10:26:06;;;;;;;41.63;8.80;;;;;;;9.99;100.00;100391.13;5096086;28;20032;-84
2023/12/24 10:28:32;;;;;;;38.33;9.07;;;;;;;10.02;100.00;100387.13;5113353;28;20106;-84
2023/12/24 10:31:08;;;;;;;36.72;9.30;;;;;;;10.02;100.00;100376.28;5097114;28;20027;-84
2023/12/24 10:33:37;;;;;;;36.17;8.60;;;;;;;10.05;100.00;100383.97;5117452;28;20036;-84
2023/12/24 10:36:06;;;;;;;36.08;8.70;;;;;;;10.06;100.00;100360.44;5117407;28;20031;-84
2023/12/24 10:38:34;;;;;;;38.60;8.97;;;;;;;10.09;100.00;100374.34;5117189;28;20026;-84
2023/12/24 10:41:00;;;;;;;31.67;9.45;;;;;;;10.14;100.00;100362.81;5115951;28;20046;-84
2023/12/24 10:43:26;;;;;;;33.50;9.05;;;;;;;10.13;100.00;100362.00;5116772;28;20032;-84
2023/12/24 10:45:51;;;;;;;35.37;8.97;;;;;;;10.14;100.00;100358.25;5099358;28;20411;-85
2023/12/24 10:48:17;;;;;;;36.67;9.38;;;;;;;10.15;100.00;100330.06;5098652;28;20032;-85
2023/12/24 10:50:43;;;;;;;30.23;8.52;;;;;;;10.20;100.00;100337.53;5099252;28;20034;-85
2023/12/24 10:53:09;;;;;;;22.08;7.95;;;;;;;10.26;100.00;100344.78;5098920;28;20062;-85
2023/12/24 10:55:36;;;;;;;23.07;7.03;;;;;;;10.27;100.00;100354.56;5117412;28;20056;-84
2023/12/24 10:58:19;;;;;;;21.20;6.68;;;;;;;10.31;100.00;100333.25;5116696;28;20053;-84
2023/12/24 11:00:45;;;;;;;22.75;6.97;;;;;;;10.33;100.00;100328.41;5099306;28;20036;-84
2023/12/24 11:03:11;;;;;;;22.35;6.32;;;;;;;10.30;100.00;100340.53;5117384;28;20376;-85
2023/12/24 11:05:40;;;;;;;18.37;5.43;;;;;;;10.30;100.00;100329.69;5082257;28;20081;-85
2023/12/24 11:08:25;;;;;;;14.93;4.72;;;;;;;10.31;100.00;100339.50;5116655;28;20024;-85
2023/12/24 11:10:55;;;;;;;8.45;3.88;;;;;;;10.25;100.00;100329.56;5087895;28;20475;-85
2023/12/24 11:13:29;;;;;;;9.25;3.42;;;;;;;10.27;100.00;100318.47;5098307;28;20039;-84
2023/12/24 11:15:55;;;;;;;8.38;3.65;;;;;;;10.26;100.00;100319.53;5098712;28;20032;-85
2023/12/24 11:18:57;;;;;;;12.98;3.95;;;;;;;10.28;100.00;100320.16;5116526;28;20027;-84
2023/12/24 11:21:22;;;;;;;7.50;2.75;;;;;;;10.26;100.00;100327.66;5116890;28;20039;-84
2023/12/24 11:24:12;;;;;;;8.77;4.00;;;;;;;10.24;100.00;100324.38;5098523;28;20031;-84
2023/12/24 11:26:49;;;;;;;10.35;3.33;;;;;;;10.21;100.00;100314.78;5098158;28;20015;-85
2023/12/24 11:29:47;;;;;;;8.05;2.95;;;;;;;10.21;100.00;100320.22;5116515;28;20095;-85
2023/12/24 11:32:25;;;;;;;10.95;3.90;;;;;;;10.21;100.00;100319.41;5098907;28;20058;-84
2023/12/24 11:34:55;;;;;;;9.48;3.83;;;;;;;10.22;100.00;100302.09;5114586;28;20028;-84
2023/12/24 11:37:28;;;;;;;10.70;3.60;;;;;;;10.19;100.00;100296.03;5115894;28;20028;-86
2023/12/24 11:40:12;;;;;;;7.20;3.13;;;;;;;10.23;100.00;100306.44;5081012;28;20052;-85